Amiret, Minnesota
Current Conditions -  °F | °C
As of 2:52 AM on Sunday 26 Oct 2014 (Local Time) from KTKC Reporting Station
Clear Clear  
Wind Chill: 42°   Ceiling: Unl
Heat Index: 46°   Visibility: 10mi
Dew Point: 31°   Wind: 6mph
Humidity: 57%   Direction: 150°SSE
Pressure: 30.01"   Gusts: NA
Location:  44.2253°N, 95.6512°W
Report Text: KTKC 260752Z AUTO 15005KT 10SM CLR 08/00 A3001 RMK AO2 T00751005
Loading
Personal Weather Stations






























Interactive Weather Map
Tropical Storm Tracking
New forecast layout! Learn more

10-Day Weather Forecast

Advertisements
Track Severe Weather on mobile